M I D A S
Marine Information and Data Acquisition System
Tripno 1044 of the Zeeleeuw from 2006-03-03 08:01:59 to 2006-03-03 13:42:36
Back to CruiseResearch ActivitiesStationsMapUnderway DataData graphs

EquipmentUnitsComment
TimeDGPSUTC
LatitudeDGPSDM.mWGS84
LongitudeDGPSDM.mWGS84
HeadingGyrodeg 
SOGDGPSknotsSpeed over ground
COGDGPSdegCourse over ground
DepthEcho soundermeters200 kHz
Missing or incorrect values are displayed as -999
Navigation data collected by the RV Zeeleeuw from 2006-03-03 07:50:42 to 2006-03-03 13:57:16
                                                                                    Next 1000 lines
Time Latitude Longitude Heading SOG COG Depth
2006-03-03 07:50:52 51°13.599 2°56.091 114.7 0.7 290 6.7
2006-03-03 07:50:57 51°13.6 2°56.088 114.4 1 293 7
2006-03-03 07:51:02 51°13.6 2°56.085 114.3 1.3 292 7.4
2006-03-03 07:51:07 51°13.601 2°56.082 114.3 1.4 293 7.5
2006-03-03 07:51:12 51°13.602 2°56.078 114.5 1.8 293 4.8
2006-03-03 07:51:17 51°13.603 2°56.074 114.7 2 293 -999
2006-03-03 07:51:23 51°13.605 2°56.068 115 2.3 293 -999
2006-03-03 07:51:28 51°13.606 2°56.063 115.2 2.5 293 -999
2006-03-03 07:51:33 51°13.608 2°56.057 115.4 2.7 294 -999
2006-03-03 07:51:37 51°13.609 2°56.053 115.7 2.9 293 -999
2006-03-03 07:51:43 51°13.611 2°56.045 115.9 3 294 -999
2006-03-03 07:51:48 51°13.613 2°56.039 116.2 3.2 294 -999
2006-03-03 07:51:53 51°13.615 2°56.032 116.4 3.3 294 -999
2006-03-03 07:51:58 51°13.617 2°56.025 116.4 3.5 294 -999
2006-03-03 07:52:03 51°13.619 2°56.017 116.4 3.6 294 -999
2006-03-03 07:52:08 51°13.621 2°56.01 116.3 3.7 295 -999
2006-03-03 07:52:13 51°13.623 2°56.002 116.1 3.8 294 -999
2006-03-03 07:52:17 51°13.625 2°55.996 115.7 3.8 294 -999
2006-03-03 07:52:23 51°13.628 2°55.986 115.4 3.8 293 -999
2006-03-03 07:52:28 51°13.63 2°55.979 115.2 3.9 293 -999
2006-03-03 07:52:33 51°13.632 2°55.97 115.1 4 292 -999
2006-03-03 07:52:38 51°13.634 2°55.961 115.1 4.1 293 -999
2006-03-03 07:52:43 51°13.636 2°55.952 115.5 4.3 292 -999
2006-03-03 07:52:48 51°13.639 2°55.943 116.2 4.4 293 -999
2006-03-03 07:52:53 51°13.641 2°55.933 117.3 4.6 293 -999
2006-03-03 07:52:58 51°13.644 2°55.923 118.1 4.8 294 -999
2006-03-03 07:53:03 51°13.647 2°55.913 119.1 5 295 -999
2006-03-03 07:53:08 51°13.65 2°55.903 120.1 5.1 296 -999
2006-03-03 07:53:13 51°13.653 2°55.892 120.9 5.2 296 -999
2006-03-03 07:53:17 51°13.656 2°55.884 121.5 5.3 297 -999
2006-03-03 07:53:23 51°13.66 2°55.871 122.1 5.3 297 -999
2006-03-03 07:53:28 51°13.664 2°55.861 122.8 5.3 298 -999
2006-03-03 07:53:33 51°13.667 2°55.85 123.5 5.3 298 -999
2006-03-03 07:53:37 51°13.67 2°55.842 123.7 5.4 299 -999
2006-03-03 07:53:43 51°13.674 2°55.83 123.6 5.5 299 37.5
2006-03-03 07:53:48 51°13.678 2°55.819 123.2 5.5 299 -999
2006-03-03 07:53:53 51°13.682 2°55.808 122.6 5.6 298 -999
2006-03-03 07:53:58 51°13.685 2°55.798 121.8 5.4 298 -999
2006-03-03 07:54:03 51°13.688 2°55.788 120.7 5 297 -999
2006-03-03 07:54:08 51°13.691 2°55.779 119.9 4.8 297 -999
2006-03-03 07:54:13 51°13.694 2°55.77 119.1 4.6 296 -999
2006-03-03 07:54:17 51°13.696 2°55.763 117.9 4.4 295 -999
2006-03-03 07:54:22 51°13.698 2°55.754 117 4.3 295 4.8
2006-03-03 07:54:27 51°13.701 2°55.746 115.9 4.2 295 5
2006-03-03 07:54:33 51°13.703 2°55.736 114.7 4 294 5.7
2006-03-03 07:54:37 51°13.704 2°55.73 114 3.8 293 -999
2006-03-03 07:54:43 51°13.707 2°55.722 113.2 3.6 293 -999
2006-03-03 07:54:47 51°13.708 2°55.717 111.8 2.9 292 4.8
2006-03-03 07:54:53 51°13.709 2°55.713 109.6 2 296 -999
2006-03-03 07:54:57 51°13.71 2°55.712 105.9 1 311 4.8
2006-03-03 07:55:03 51°13.711 2°55.713 100.3 0.6 14 -999
2006-03-03 07:55:08 51°13.712 2°55.716 93.3 1 59 -999
2006-03-03 07:55:13 51°13.713 2°55.719 85.1 1.4 56 -999
2006-03-03 07:55:17 51°13.714 2°55.721 78.3 1.7 55 4.8
2006-03-03 07:55:22 51°13.716 2°55.725 73.3 2 53 8.3
2006-03-03 07:55:27 51°13.718 2°55.728 67.5 2 48 -999
2006-03-03 07:55:33 51°13.72 2°55.731 62.2 1.9 44 -999
2006-03-03 07:55:38 51°13.722 2°55.733 59.5 1.8 42 -999
2006-03-03 07:55:43 51°13.723 2°55.735 58 1.5 36 -999
2006-03-03 07:55:48 51°13.725 2°55.736 55.8 1.2 31 -999
2006-03-03 07:55:53 51°13.726 2°55.737 53.3 0.9 20 -999
2006-03-03 07:55:57 51°13.726 2°55.737 51.2 0.6 6 -999
2006-03-03 07:56:03 51°13.727 2°55.736 49.3 0.4 334 -999
2006-03-03 07:56:08 51°13.727 2°55.735 48 0.4 300 -999
2006-03-03 07:56:13 51°13.727 2°55.734 47 0.6 268 -999
2006-03-03 07:56:17 51°13.727 2°55.733 45.6 0.8 252 -999
2006-03-03 07:56:23 51°13.726 2°55.73 44.8 1 245 -999
2006-03-03 07:56:28 51°13.725 2°55.728 44 1.2 238 -999
2006-03-03 07:56:33 51°13.725 2°55.726 43.6 1.1 243 -999
2006-03-03 07:56:37 51°13.724 2°55.724 43.5 1 240 -999
2006-03-03 07:56:42 51°13.723 2°55.722 43.5 0.9 249 -999
2006-03-03 07:56:47 51°13.723 2°55.721 43.2 0.7 252 39.4
2006-03-03 07:56:52 51°13.723 2°55.72 42.2 0.5 272 32
2006-03-03 07:56:58 51°13.724 2°55.719 40.7 0.4 291 -999
2006-03-03 07:57:03 51°13.724 2°55.718 38.6 0.5 326 5
2006-03-03 07:57:08 51°13.725 2°55.718 36.2 0.6 347 -999
2006-03-03 07:57:13 51°13.726 2°55.718 32.8 0.7 357 -999
2006-03-03 07:57:17 51°13.727 2°55.718 29.7 0.8 2 4.8
2006-03-03 07:57:22 51°13.729 2°55.718 26.9 1.1 -999 4.8
2006-03-03 07:57:27 51°13.731 2°55.718 22.9 1.6 3 -999
2006-03-03 07:57:33 51°13.735 2°55.718 17.6 2.1 -999 -999
2006-03-03 07:57:37 51°13.738 2°55.718 11.4 2.4 357 4.9
2006-03-03 07:57:42 51°13.742 2°55.717 4.6 2.8 351 5.2
2006-03-03 07:57:48 51°13.747 2°55.715 359 3 348 -999
2006-03-03 07:57:53 51°13.751 2°55.712 350.2 3.4 340 -999
2006-03-03 07:57:58 51°13.756 2°55.708 342 3.8 335 -999
2006-03-03 07:58:02 51°13.76 2°55.704 337.5 4.1 329 9
2006-03-03 07:58:07 51°13.765 2°55.699 334.5 4.5 329 -999
2006-03-03 07:58:12 51°13.771 2°55.693 333 4.8 327 8.8
2006-03-03 07:58:17 51°13.777 2°55.686 332 5.3 327 8.2
2006-03-03 07:58:22 51°13.784 2°55.679 331.9 5.7 326 8.7
2006-03-03 07:58:27 51°13.791 2°55.672 332.4 6.1 327 -999
2006-03-03 07:58:33 51°13.801 2°55.663 332.9 6.6 328 -999
2006-03-03 07:58:38 51°13.809 2°55.655 333.4 6.8 328 -999
2006-03-03 07:58:42 51°13.816 2°55.648 333.8 7.1 329 -999
2006-03-03 07:58:47 51°13.825 2°55.64 334.3 7.4 330 8.8
2006-03-03 07:58:53 51°13.836 2°55.63 334.9 7.6 331 -999
2006-03-03 07:58:58 51°13.845 2°55.621 335.7 7.7 332 -999
2006-03-03 07:59:03 51°13.855 2°55.612 336.6 8 332 8.2
2006-03-03 07:59:07 51°13.863 2°55.605 337.4 8.2 333 -999
2006-03-03 07:59:13 51°13.875 2°55.596 338 8.3 333 -999
2006-03-03 07:59:17 51°13.884 2°55.589 338.5 8.4 334 -999
2006-03-03 07:59:23 51°13.896 2°55.579 339.2 8.5 334 -999
2006-03-03 07:59:27 51°13.905 2°55.573 339.6 8.6 334 8.2
2006-03-03 07:59:32 51°13.916 2°55.565 340 8.7 335 8.2
2006-03-03 07:59:37 51°13.927 2°55.556 340.3 8.8 335 8.2
2006-03-03 07:59:42 51°13.938 2°55.548 340.6 8.8 335 8.2
2006-03-03 07:59:47 51°13.949 2°55.54 340.8 8.8 335 8.2
2006-03-03 07:59:52 51°13.961 2°55.532 340.8 8.9 335 8.3
2006-03-03 07:59:57 51°13.972 2°55.524 341.7 9 337 8.2
2006-03-03 08:00:02 51°13.983 2°55.516 342.3 9 337 8.3
2006-03-03 08:00:07 51°13.995 2°55.508 342.3 9 337 8.2
2006-03-03 08:00:12 51°14.006 2°55.5 341.8 9 336 8.2
2006-03-03 08:00:17 51°14.018 2°55.492 341.6 8.9 336 8.3
2006-03-03 08:00:22 51°14.029 2°55.484 341.6 8.9 336 8.3
2006-03-03 08:00:27 51°14.04 2°55.477 341.6 8.8 336 8.3
2006-03-03 08:00:33 51°14.053 2°55.468 342 8.6 337 -999
2006-03-03 08:00:37 51°14.062 2°55.461 341.9 8.5 336 8.3
2006-03-03 08:00:43 51°14.075 2°55.452 341.5 8.5 336 8.3
2006-03-03 08:00:47 51°14.084 2°55.445 341 8.7 335 8.3
2006-03-03 08:00:52 51°14.095 2°55.437 340.8 8.9 335 -999
2006-03-03 08:00:57 51°14.106 2°55.428 340.8 9.1 335 8.3
2006-03-03 08:01:03 51°14.121 2°55.418 340.2 9.4 334 -999
2006-03-03 08:01:07 51°14.13 2°55.41 339.6 9.5 334 -999
2006-03-03 08:01:13 51°14.144 2°55.399 339.3 9.6 333 -999
2006-03-03 08:01:17 51°14.154 2°55.39 338.2 9.7 332 8.3
2006-03-03 08:01:22 51°14.166 2°55.379 336.7 9.8 331 8.3
2006-03-03 08:01:27 51°14.177 2°55.368 335.3 9.9 329 8.2
2006-03-03 08:01:32 51°14.189 2°55.356 334.5 10 328 8.3
2006-03-03 08:01:37 51°14.201 2°55.344 332.8 10 326 8.2
2006-03-03 08:01:42 51°14.212 2°55.33 330.4 10 324 8.2
2006-03-03 08:01:47 51°14.223 2°55.317 328.4 10.1 322 8.2
2006-03-03 08:01:52 51°14.234 2°55.302 327.5 10.2 321 8.3
2006-03-03 08:01:57 51°14.245 2°55.288 326.6 10.3 320 8.3
2006-03-03 08:02:02 51°14.256 2°55.272 325 10.3 318 8.2
2006-03-03 08:02:07 51°14.266 2°55.256 323 10.4 316 8.2
2006-03-03 08:02:12 51°14.276 2°55.239 321 10.5 314 8.3
2006-03-03 08:02:17 51°14.286 2°55.221 318.5 10.5 311 8.2
2006-03-03 08:02:22 51°14.295 2°55.203 316.4 10.5 310 8.3
2006-03-03 08:02:27 51°14.304 2°55.185 315 10.6 309 -999
2006-03-03 08:02:33 51°14.315 2°55.163 314 10.7 308 8.9
2006-03-03 08:02:38 51°14.323 2°55.143 313.1 10.6 306 -999
2006-03-03 08:02:42 51°14.33 2°55.128 312.1 10.7 305 -999
2006-03-03 08:02:47 51°14.338 2°55.108 310.1 10.8 303 -999
2006-03-03 08:02:52 51°14.346 2°55.087 307.5 10.9 301 8.3
2006-03-03 08:02:57 51°14.353 2°55.065 305.2 11 299 -999
2006-03-03 08:03:02 51°14.36 2°55.043 303.3 11.2 298 -999
2006-03-03 08:03:07 51°14.367 2°55.02 301.4 11.3 295 8.2
2006-03-03 08:03:12 51°14.373 2°54.997 300.4 11.5 294 8.1
2006-03-03 08:03:17 51°14.378 2°54.973 298.5 11.6 290 8.1
2006-03-03 08:03:22 51°14.383 2°54.948 296.1 11.7 289 8.2
2006-03-03 08:03:27 51°14.388 2°54.923 293.4 11.9 285 8.2
2006-03-03 08:03:32 51°14.391 2°54.897 291 11.9 284 8.2
2006-03-03 08:03:37 51°14.395 2°54.871 290.1 12.2 283 8.4
2006-03-03 08:03:42 51°14.397 2°54.845 288.1 12.2 280 8.5
2006-03-03 08:03:47 51°14.399 2°54.817 285.1 12.3 277 8.2
2006-03-03 08:03:52 51°14.401 2°54.79 282.8 12.5 275 8.6
2006-03-03 08:03:57 51°14.402 2°54.762 281.5 12.6 275 8.9
2006-03-03 08:04:02 51°14.404 2°54.733 282.1 12.7 276 8.2
2006-03-03 08:04:07 51°14.405 2°54.705 281.6 12.9 275 8.4
2006-03-03 08:04:12 51°14.407 2°54.676 281.6 13 275 8.4
2006-03-03 08:04:17 51°14.408 2°54.647 281.6 13.3 273 8.4
2006-03-03 08:04:22 51°14.409 2°54.618 281.6 13.3 274 8.3
2006-03-03 08:04:27 51°14.41 2°54.588 281.6 13.5 273 8.3
2006-03-03 08:04:32 51°14.411 2°54.557 281.5 13.5 273 8.4
2006-03-03 08:04:37 51°14.411 2°54.528 280 13.6 270 8.6
2006-03-03 08:04:42 51°14.41 2°54.497 277.2 13.7 268 8.4
2006-03-03 08:04:47 51°14.409 2°54.467 275.3 13.8 267 8.3
2006-03-03 08:04:52 51°14.407 2°54.437 273.5 13.7 264 8.1
2006-03-03 08:04:57 51°14.404 2°54.406 271.1 13.7 262 8
2006-03-03 08:05:02 51°14.4 2°54.376 268.5 13.8 260 7.8
2006-03-03 08:05:07 51°14.396 2°54.347 266.3 13.8 257 7.7
2006-03-03 08:05:12 51°14.39 2°54.318 262.9 13.7 253 7.7
2006-03-03 08:05:17 51°14.383 2°54.29 258.7 13.7 249 7.7
2006-03-03 08:05:22 51°14.375 2°54.262 254.5 13.8 246 7.6
2006-03-03 08:05:27 51°14.366 2°54.235 251 13.8 243 7.6
2006-03-03 08:05:32 51°14.357 2°54.208 247.9 13.8 241 7.6
2006-03-03 08:05:37 51°14.348 2°54.182 246.3 13.9 240 7.6
2006-03-03 08:05:42 51°14.338 2°54.155 245.6 13.9 241 7.5
2006-03-03 08:05:47 51°14.328 2°54.128 244.5 13.9 240 5.6
2006-03-03 08:05:52 51°14.318 2°54.102 243.8 13.9 238 5.6
2006-03-03 08:05:57 51°14.307 2°54.077 242.4 13.9 237 7.5
2006-03-03 08:06:02 51°14.297 2°54.051 241.2 14 236 7.5
2006-03-03 08:06:07 51°14.286 2°54.025 240.6 14 237 7.5
2006-03-03 08:06:12 51°14.275 2°53.999 240.4 14.1 236 7.5
2006-03-03 08:06:17 51°14.265 2°53.974 240.5 14 236 7.4
2006-03-03 08:06:22 51°14.254 2°53.948 240.2 14 237 7.4
2006-03-03 08:06:27 51°14.244 2°53.922 240.9 14 238 7.4
2006-03-03 08:06:32 51°14.234 2°53.895 241.1 14 238 7.3
2006-03-03 08:06:37 51°14.223 2°53.869 242.4 14 239 7.4
2006-03-03 08:06:42 51°14.215 2°53.841 243.8 14 238 7.4
2006-03-03 08:06:47 51°14.205 2°53.813 247.2 14.1 242 7.3
2006-03-03 08:06:52 51°14.198 2°53.785 248.3 14.1 246 7.4
2006-03-03 08:06:57 51°14.189 2°53.757 250.4 14.1 244 7.4
2006-03-03 08:07:02 51°14.181 2°53.728 250.6 14.1 246 7.4
2006-03-03 08:07:07 51°14.173 2°53.7 251.8 14.1 245 7.5
2006-03-03 08:07:12 51°14.165 2°53.671 251.9 14.1 245 7.5
2006-03-03 08:07:17 51°14.157 2°53.643 251.6 14.2 245 7.5
2006-03-03 08:07:22 51°14.149 2°53.614 251.2 14.2 245 5.6
2006-03-03 08:07:27 51°14.14 2°53.586 250.6 14.2 244 5.6
2006-03-03 08:07:32 51°14.13 2°53.558 249.5 14.2 243 5.6
2006-03-03 08:07:37 51°14.121 2°53.531 247.5 14.2 240 5.7
2006-03-03 08:07:42 51°14.11 2°53.505 244.3 14.3 237 7.6
2006-03-03 08:07:47 51°14.098 2°53.479 241.6 14.3 236 7.6
2006-03-03 08:07:52 51°14.087 2°53.453 239 14.3 234 7.7
2006-03-03 08:07:57 51°14.075 2°53.428 238.2 14.3 233 7.6
2006-03-03 08:08:02 51°14.063 2°53.403 236.9 14.3 233 7.7
2006-03-03 08:08:07 51°14.05 2°53.378 236.5 14.4 232 7.7
2006-03-03 08:08:12 51°14.039 2°53.352 236.2 14.4 233 7.7
2006-03-03 08:08:17 51°14.027 2°53.327 236.6 14.3 233 7.7
2006-03-03 08:08:22 51°14.015 2°53.301 236.9 14.4 234 7.7
2006-03-03 08:08:27 51°14.004 2°53.275 238.3 14.4 235 7.8
2006-03-03 08:08:32 51°13.992 2°53.249 238.9 14.4 235 7.8
2006-03-03 08:08:37 51°13.982 2°53.221 240.3 14.5 238 7.8
2006-03-03 08:08:42 51°13.972 2°53.194 243.5 14.4 240 7.8
2006-03-03 08:08:47 51°13.963 2°53.166 245.3 14.4 242 7.8
2006-03-03 08:08:52 51°13.954 2°53.137 247.5 14.4 243 7.9
2006-03-03 08:08:57 51°13.946 2°53.108 249 14.4 245 7.9
2006-03-03 08:09:02 51°13.937 2°53.08 250 14.4 244 7.9
2006-03-03 08:09:07 51°13.928 2°53.051 250.1 14.4 245 7.9
2006-03-03 08:09:12 51°13.92 2°53.022 250.8 14.4 244 8
2006-03-03 08:09:17 51°13.911 2°52.994 250.1 14.4 244 8
2006-03-03 08:09:22 51°13.902 2°52.965 249.6 14.5 243 8.1
2006-03-03 08:09:27 51°13.892 2°52.937 248.4 14.4 242 8.1
2006-03-03 08:09:32 51°13.882 2°52.91 247.2 14.5 241 8.1
2006-03-03 08:09:37 51°13.872 2°52.882 244.5 14.5 239 8.1
2006-03-03 08:09:42 51°13.86 2°52.856 243.3 14.5 238 8.1
2006-03-03 08:09:47 51°13.849 2°52.829 241 14.4 235 8.1
2006-03-03 08:09:52 51°13.837 2°52.804 239.3 14.4 235 8.2
2006-03-03 08:09:57 51°13.825 2°52.778 238.1 14.4 234 8.2
2006-03-03 08:10:02 51°13.813 2°52.752 237 14.5 233 8.2
2006-03-03 08:10:07 51°13.801 2°52.727 236.9 14.4 234 8.2
2006-03-03 08:10:12 51°13.789 2°52.702 236.5 14.3 232 8.2
2006-03-03 08:10:17 51°13.777 2°52.676 236.4 14.4 233 8.3
2006-03-03 08:10:22 51°13.766 2°52.65 236.8 14.5 233 8.2
2006-03-03 08:10:27 51°13.754 2°52.624 238.2 14.4 236 8.1
2006-03-03 08:10:32 51°13.744 2°52.597 239.6 14.3 237 8.1
2006-03-03 08:10:37 51°13.733 2°52.57 241.6 14.3 237 8.2
2006-03-03 08:10:42 51°13.723 2°52.542 242.4 14.5 239 8.2
2006-03-03 08:10:47 51°13.714 2°52.515 245.9 14.4 242 8.2
2006-03-03 08:10:52 51°13.704 2°52.487 246.4 14.4 241 8.2
2006-03-03 08:10:57 51°13.695 2°52.459 248.1 14.3 244 8.2
2006-03-03 08:11:02 51°13.687 2°52.43 248.9 14.3 244 8.2
2006-03-03 08:11:07 51°13.678 2°52.401 248.2 14.4 243 8.3
2006-03-03 08:11:12 51°13.669 2°52.373 248.3 14.4 242 8.3
2006-03-03 08:11:17 51°13.659 2°52.346 247.9 14.4 242 8.3
2006-03-03 08:11:22 51°13.649 2°52.318 246.6 14.3 240 8.3
2006-03-03 08:11:27 51°13.638 2°52.291 244.4 14.4 238 8.3
2006-03-03 08:11:32 51°13.628 2°52.265 242.5 14.4 238 8.4
2006-03-03 08:11:37 51°13.616 2°52.239 241.1 14.3 235 8.4
2006-03-03 08:11:42 51°13.605 2°52.213 239.5 14.4 235 8.4
2006-03-03 08:11:47 51°13.593 2°52.187 239.6 14.3 235 8.4
2006-03-03 08:11:52 51°13.582 2°52.161 238.8 14.4 235 8.4
2006-03-03 08:11:57 51°13.571 2°52.135 239.5 14.4 235 8.4
2006-03-03 08:12:02 51°13.56 2°52.108 239.5 14.4 235 8.4
2006-03-03 08:12:07 51°13.548 2°52.082 239.6 14.4 236 8.4
2006-03-03 08:12:12 51°13.538 2°52.055 240.9 14.4 238 8.4
2006-03-03 08:12:17 51°13.528 2°52.028 242.4 14.4 238 8.4
2006-03-03 08:12:22 51°13.518 2°52 243.9 14.3 240 8.4
2006-03-03 08:12:27 51°13.508 2°51.972 245.3 14.4 241 8.4
2006-03-03 08:12:32 51°13.499 2°51.944 246.5 14.4 243 8.4
2006-03-03 08:12:37 51°13.49 2°51.915 248 14.3 243 8.4
2006-03-03 08:12:42 51°13.481 2°51.887 248.5 14.3 244 8.4
2006-03-03 08:12:47 51°13.473 2°51.859 248.5 14.3 243 8.5
2006-03-03 08:12:52 51°13.463 2°51.831 248.5 14.3 242 8.5
2006-03-03 08:12:57 51°13.453 2°51.803 247.5 14.3 241 8.5
2006-03-03 08:13:02 51°13.443 2°51.777 245.3 14.4 238 8.5
2006-03-03 08:13:07 51°13.432 2°51.749 243.8 14.4 239 8.5
2006-03-03 08:13:12 51°13.421 2°51.723 242 14.3 236 8.5
2006-03-03 08:13:17 51°13.41 2°51.698 240.2 14.3 236 8.5
2006-03-03 08:13:22 51°13.398 2°51.671 239.2 14.4 235 8.5
2006-03-03 08:13:27 51°13.387 2°51.646 238.9 14.3 235 8.6
2006-03-03 08:13:32 51°13.375 2°51.62 238.8 14.2 235 8.5
2006-03-03 08:13:37 51°13.364 2°51.594 238 14.4 235 8.4
2006-03-03 08:13:42 51°13.352 2°51.568 239.2 14.5 236 8.4
2006-03-03 08:13:47 51°13.341 2°51.541 239.5 14.3 236 8.5
2006-03-03 08:13:52 51°13.331 2°51.515 240.2 14.4 237 8.4
2006-03-03 08:13:57 51°13.321 2°51.486 242.2 14.4 239 8.5
2006-03-03 08:14:02 51°13.311 2°51.459 245 14.3 241 8.5
2006-03-03 08:14:07 51°13.302 2°51.431 245.4 14.4 242 8.4
2006-03-03 08:14:12 51°13.293 2°51.403 246.9 14.4 243 8.4
2006-03-03 08:14:17 51°13.283 2°51.375 247.2 14.4 242 8.5
2006-03-03 08:14:22 51°13.274 2°51.347 247.3 14.4 243 8.4
2006-03-03 08:14:27 51°13.265 2°51.318 246.8 14.4 242 8.4
2006-03-03 08:14:32 51°13.255 2°51.29 246.6 14.5 242 8.4
2006-03-03 08:14:37 51°13.246 2°51.262 246.7 14.4 242 8.5
2006-03-03 08:14:42 51°13.236 2°51.234 246 14.4 241 8.5
2006-03-03 08:14:47 51°13.226 2°51.207 245.3 14.5 240 8.6
2006-03-03 08:14:52 51°13.215 2°51.18 244.3 14.4 239 8.5
2006-03-03 08:14:57 51°13.205 2°51.153 241.9 14.4 236 8.6
2006-03-03 08:15:02 51°13.193 2°51.127 241.1 14.4 237 8.6
2006-03-03 08:15:07 51°13.182 2°51.101 239.5 14.5 235 8.6
2006-03-03 08:15:12 51°13.17 2°51.075 239.3 14.4 235 8.6
2006-03-03 08:15:17 51°13.159 2°51.049 238.6 14.4 234 8.6
2006-03-03 08:15:22 51°13.147 2°51.023 238 14.4 235 8.6
2006-03-03 08:15:27 51°13.136 2°50.997 238.1 14.4 235 8.6
2006-03-03 08:15:32 51°13.125 2°50.971 238.4 14.4 235 8.6
2006-03-03 08:15:37 51°13.114 2°50.944 239 14.5 237 8.6
2006-03-03 08:15:42 51°13.103 2°50.917 240.5 14.4 237 8.7
2006-03-03 08:15:47 51°13.092 2°50.891 241.4 14.3 238 8.6
2006-03-03 08:15:52 51°13.082 2°50.863 242.6 14.4 239 8.6
2006-03-03 08:15:57 51°13.073 2°50.835 244.6 14.5 241 8.6
2006-03-03 08:16:02 51°13.063 2°50.807 246.1 14.4 242 8.6
2006-03-03 08:16:07 51°13.054 2°50.779 246.7 14.5 241 8.6
2006-03-03 08:16:12 51°13.045 2°50.751 247.5 14.4 242 8.6
2006-03-03 08:16:17 51°13.035 2°50.723 247.5 14.4 242 8.6
2006-03-03 08:16:22 51°13.026 2°50.694 246.9 14.5 242 8.6
2006-03-03 08:16:27 51°13.016 2°50.667 246.7 14.5 241 8.6
2006-03-03 08:16:32 51°13.007 2°50.639 246 14.4 241 8.6
2006-03-03 08:16:37 51°12.996 2°50.611 245.2 14.5 239 8.6
2006-03-03 08:16:42 51°12.986 2°50.585 243.8 14.5 238 8.6
2006-03-03 08:16:47 51°12.975 2°50.558 242.6 14.4 238 8.7
2006-03-03 08:16:52 51°12.963 2°50.531 241.2 14.5 235 8.7
2006-03-03 08:16:57 51°12.953 2°50.505 240.4 14.4 237 8.7
2006-03-03 08:17:02 51°12.941 2°50.479 239.7 14.4 235 8.7
2006-03-03 08:17:07 51°12.93 2°50.452 239 14.5 236 8.7
2006-03-03 08:17:12 51°12.918 2°50.427 239.4 14.5 234 8.6
2006-03-03 08:17:17 51°12.908 2°50.4 239.1 14.4 237 8.7
2006-03-03 08:17:22 51°12.896 2°50.373 240.4 14.4 236 8.6
2006-03-03 08:17:27 51°12.886 2°50.346 241.5 14.5 239 8.6
2006-03-03 08:17:32 51°12.876 2°50.318 243.3 14.5 240 8.7
2006-03-03 08:17:37 51°12.867 2°50.29 244.2 14.5 240 8.7
2006-03-03 08:17:42 51°12.857 2°50.262 245.4 14.4 241 8.7
2006-03-03 08:17:47 51°12.847 2°50.234 245.8 14.5 241 8.7
2006-03-03 08:17:52 51°12.838 2°50.206 245.9 14.5 242 8.6
2006-03-03 08:17:57 51°12.828 2°50.178 246.7 14.5 241 8.7
2006-03-03 08:18:02 51°12.819 2°50.15 246.7 14.4 241 8.7
2006-03-03 08:18:07 51°12.809 2°50.122 245.9 14.4 240 8.7
2006-03-03 08:18:12 51°12.799 2°50.094 245.3 14.4 240 8.7
2006-03-03 08:18:17 51°12.788 2°50.067 244 14.4 238 8.7
2006-03-03 08:18:22 51°12.777 2°50.041 242.6 14.4 237 8.7
2006-03-03 08:18:27 51°12.766 2°50.014 241.6 14.4 237 8.7
2006-03-03 08:18:32 51°12.756 2°49.987 241.2 14.4 237 8.7
2006-03-03 08:18:37 51°12.744 2°49.961 240.6 14.5 236 8.6
2006-03-03 08:18:42 51°12.733 2°49.934 240.6 14.4 237 8.7
2006-03-03 08:18:47 51°12.722 2°49.908 240.8 14.3 236 8.7
2006-03-03 08:18:52 51°12.711 2°49.881 240.1 14.4 237 8.7
2006-03-03 08:18:57 51°12.701 2°49.854 241.4 14.4 238 8.7
2006-03-03 08:19:02 51°12.691 2°49.827 242.1 14.4 239 8.7
2006-03-03 08:19:07 51°12.681 2°49.799 243.4 14.4 240 8.7
2006-03-03 08:19:12 51°12.671 2°49.771 245.3 14.4 241 8.7
2006-03-03 08:19:17 51°12.662 2°49.743 246.5 14.3 243 8.7
2006-03-03 08:19:22 51°12.653 2°49.715 247.2 14.3 242 8.7
2006-03-03 08:19:26 51°12.646 2°49.692 247.3 14.4 242 8.7
2006-03-03 08:19:32 51°12.635 2°49.659 247.1 14.4 242 8.7
2006-03-03 08:19:37 51°12.625 2°49.631 247.3 14.3 242 8.8
2006-03-03 08:19:42 51°12.616 2°49.603 246.7 14.3 241 8.8
2006-03-03 08:19:47 51°12.606 2°49.575 246.3 14.4 242 8.8
2006-03-03 08:19:52 51°12.597 2°49.547 246.3 14.3 242 8.8
2006-03-03 08:19:57 51°12.587 2°49.519 246 14.3 240 8.8
2006-03-03 08:20:02 51°12.577 2°49.491 245.4 14.4 241 8.8
2006-03-03 08:20:07 51°12.567 2°49.464 245.7 14.4 241 8.8
2006-03-03 08:20:12 51°12.558 2°49.437 245 14.2 241 8.8
2006-03-03 08:20:17 51°12.547 2°49.41 244 14.4 239 8.8
2006-03-03 08:20:22 51°12.537 2°49.382 243.8 14.4 240 8.8
2006-03-03 08:20:27 51°12.526 2°49.356 243.2 14.3 238 8.8
2006-03-03 08:20:32 51°12.516 2°49.329 242.2 14.3 239 8.8
2006-03-03 08:20:37 51°12.505 2°49.302 241.8 14.4 237 8.7
2006-03-03 08:20:42 51°12.495 2°49.275 242.1 14.3 239 8.7
2006-03-03 08:20:47 51°12.485 2°49.248 242.8 14.3 239 8.7
2006-03-03 08:20:52 51°12.476 2°49.22 244.1 14.3 240 8.7
2006-03-03 08:20:57 51°12.467 2°49.192 246 14.3 242 8.7
2006-03-03 08:21:02 51°12.458 2°49.164 247.7 14.3 244 8.7
2006-03-03 08:21:07 51°12.45 2°49.134 249.3 14.4 246 8.7
2006-03-03 08:21:12 51°12.442 2°49.106 251.1 14.3 246 8.8
2006-03-03 08:21:17 51°12.434 2°49.077 251.8 14.2 246 8.8
2006-03-03 08:21:22 51°12.426 2°49.048 251.8 14.4 246 8.8
2006-03-03 08:21:27 51°12.419 2°49.019 251.8 14.4 247 8.8
2006-03-03 08:21:32 51°12.41 2°48.99 251.8 14.3 246 8.9
2006-03-03 08:21:37 51°12.402 2°48.961 251.1 14.4 246 8.8
2006-03-03 08:21:42 51°12.393 2°48.932 250.4 14.4 245 8.8
2006-03-03 08:21:47 51°12.385 2°48.903 250.1 14.4 245 8.9
2006-03-03 08:21:53 51°12.374 2°48.869 249.6 14.4 244 8.9
2006-03-03 08:21:57 51°12.367 2°48.847 249 14.4 244 8.9
2006-03-03 08:22:02 51°12.358 2°48.818 248.8 14.3 243 9
2006-03-03 08:22:07 51°12.349 2°48.79 247.2 14.4 242 9
2006-03-03 08:22:12 51°12.34 2°48.762 246.7 14.4 242 8.9
2006-03-03 08:22:17 51°12.33 2°48.734 246.2 14.3 241 9
2006-03-03 08:22:22 51°12.32 2°48.706 245.9 14.4 242 9
2006-03-03 08:22:27 51°12.311 2°48.678 246.1 14.4 242 9
2006-03-03 08:22:32 51°12.302 2°48.65 246.8 14.4 243 9.1
2006-03-03 08:22:37 51°12.294 2°48.621 248.6 14.4 245 9
2006-03-03 08:22:42 51°12.286 2°48.591 249.9 14.4 246 9.1
2006-03-03 08:22:47 51°12.278 2°48.562 251.8 14.4 247 9.2
2006-03-03 08:22:52 51°12.271 2°48.532 252.3 14.4 247 9.2
2006-03-03 08:22:57 51°12.263 2°48.503 253.7 14.4 249 9.1
2006-03-03 08:23:02 51°12.256 2°48.474 253.3 14.4 247 9.1
2006-03-03 08:23:07 51°12.248 2°48.445 253.2 14.4 248 9.2
2006-03-03 08:23:12 51°12.24 2°48.416 252.8 14.4 247 9.2
2006-03-03 08:23:17 51°12.232 2°48.387 252 14.4 246 9.2
2006-03-03 08:23:22 51°12.223 2°48.358 250.9 14.4 244 9.2
2006-03-03 08:23:27 51°12.215 2°48.329 249.6 14.5 244 9.3
2006-03-03 08:23:32 51°12.206 2°48.3 249.6 14.4 245 9.3
2006-03-03 08:23:37 51°12.198 2°48.272 248.8 14.4 244 9.3
2006-03-03 08:23:42 51°12.189 2°48.243 248.2 14.4 243 9.3
2006-03-03 08:23:47 51°12.179 2°48.215 248 14.4 243 9.3
2006-03-03 08:23:52 51°12.171 2°48.186 247.7 14.4 244 9.3
2006-03-03 08:23:57 51°12.162 2°48.158 247.2 14.4 242 9.3
2006-03-03 08:24:02 51°12.153 2°48.129 247.9 14.4 245 9.3
2006-03-03 08:24:07 51°12.144 2°48.101 248.1 14.4 243 9.3
2006-03-03 08:24:12 51°12.136 2°48.072 249.7 14.4 246 9.4
2006-03-03 08:24:17 51°12.128 2°48.042 251 14.3 246 9.4
2006-03-03 08:24:22 51°12.12 2°48.013 251.4 14.4 248 9.4
2006-03-03 08:24:27 51°12.113 2°47.984 252.1 14.3 247 9.4
2006-03-03 08:24:32 51°12.105 2°47.955 252.1 14.4 248 9.4
2006-03-03 08:24:37 51°12.097 2°47.926 252.6 14.4 247 9.4
2006-03-03 08:24:42 51°12.09 2°47.896 252.5 14.4 248 9.5
2006-03-03 08:24:47 51°12.082 2°47.867 252.8 14.4 248 9.4
2006-03-03 08:24:52 51°12.074 2°47.837 252.5 14.4 247 9.5
2006-03-03 08:24:57 51°12.066 2°47.808 252.5 14.4 247 9.5
2006-03-03 08:25:02 51°12.058 2°47.779 251.1 14.4 246 9.5
2006-03-03 08:25:07 51°12.05 2°47.75 250.8 14.4 247 9.5
2006-03-03 08:25:12 51°12.042 2°47.722 250 14.3 245 9.5
2006-03-03 08:25:17 51°12.033 2°47.693 249.1 14.4 244 9.5
2006-03-03 08:25:22 51°12.024 2°47.664 248.4 14.4 244 9.6
2006-03-03 08:25:27 51°12.015 2°47.636 248.5 14.4 244 9.6
2006-03-03 08:25:32 51°12.007 2°47.607 248.1 14.4 245 9.6
2006-03-03 08:25:37 51°11.999 2°47.579 248.9 14.3 246 9.6
2006-03-03 08:25:42 51°11.991 2°47.55 250.2 14.4 246 9.6
2006-03-03 08:25:47 51°11.983 2°47.52 251.8 14.4 248 9.6
2006-03-03 08:25:52 51°11.976 2°47.49 253.2 14.3 248 9.7
2006-03-03 08:25:57 51°11.969 2°47.461 254.3 14.2 250 9.7
2006-03-03 08:26:02 51°11.962 2°47.431 254.2 14.4 248 9.6
2006-03-03 08:26:07 51°11.956 2°47.401 255.2 14.4 251 9.7
2006-03-03 08:26:12 51°11.949 2°47.372 255.1 14.3 249 9.7
2006-03-03 08:26:17 51°11.941 2°47.342 254 14.3 249 9.8
2006-03-03 08:26:22 51°11.934 2°47.313 253.7 14.4 248 9.8
2006-03-03 08:26:27 51°11.926 2°47.283 253.4 14.4 249 9.8
2006-03-03 08:26:32 51°11.919 2°47.254 252.5 14.3 248 9.8
2006-03-03 08:26:37 51°11.911 2°47.225 252 14.3 247 9.8
2006-03-03 08:26:42 51°11.903 2°47.196 251.1 14.3 246 9.8
2006-03-03 08:26:47 51°11.895 2°47.167 251 14.4 247 9.8
2006-03-03 08:26:52 51°11.887 2°47.137 250.6 14.4 245 9.8
2006-03-03 08:26:57 51°11.879 2°47.109 250.9 14.4 247 9.8
2006-03-03 08:27:02 51°11.871 2°47.079 251.1 14.3 246 9.8
2006-03-03 08:27:07 51°11.863 2°47.05 251.1 14.5 247 9.8
2006-03-03 08:27:12 51°11.856 2°47.021 252.6 14.3 249 9.8
2006-03-03 08:27:17 51°11.849 2°46.991 253 14.3 247 9.9
2006-03-03 08:27:22 51°11.842 2°46.961 253.3 14.4 250 9.9
2006-03-03 08:27:27 51°11.835 2°46.931 254.3 14.4 250 9.9
2006-03-03 08:27:32 51°11.828 2°46.902 254.8 14.3 250 9.9
2006-03-03 08:27:37 51°11.821 2°46.872 254.6 14.3 250 10
2006-03-03 08:27:42 51°11.814 2°46.842 253.8 14.4 248 10
2006-03-03 08:27:47 51°11.806 2°46.813 253.4 14.4 249 10
2006-03-03 08:27:52 51°11.799 2°46.784 252.5 14.4 247 10.1
2006-03-03 08:27:57 51°11.791 2°46.755 251.5 14.3 247 10.1
2006-03-03 08:28:02 51°11.783 2°46.726 250.6 14.3 246 10.1
2006-03-03 08:28:07 51°11.774 2°46.697 249.9 14.4 246 10.1
2006-03-03 08:28:12 51°11.766 2°46.667 249.8 14.4 246 10.1
2006-03-03 08:28:17 51°11.758 2°46.639 250.4 14.3 246 10.1
2006-03-03 08:28:22 51°11.751 2°46.609 250.1 14.4 247 10.1
2006-03-03 08:28:27 51°11.743 2°46.58 251.4 14.4 248 10.1
2006-03-03 08:28:32 51°11.736 2°46.55 252.2 14.3 248 10.2
2006-03-03 08:28:37 51°11.728 2°46.521 252.8 14.3 249 10.2
2006-03-03 08:28:42 51°11.721 2°46.491 253.2 14.4 249 10.2
2006-03-03 08:28:47 51°11.714 2°46.462 254 14.3 250 10.2
2006-03-03 08:28:52 51°11.707 2°46.432 253.6 14.4 249 10.2
2006-03-03 08:28:57 51°11.7 2°46.402 254 14.4 250 10.2
2006-03-03 08:29:02 51°11.693 2°46.372 254.3 14.3 249 10.3
2006-03-03 08:29:07 51°11.686 2°46.343 254 14.3 250 10.3
2006-03-03 08:29:12 51°11.679 2°46.313 253.9 14.4 249 10.3
2006-03-03 08:29:17 51°11.672 2°46.284 253.5 14.4 249 10.3
2006-03-03 08:29:22 51°11.664 2°46.254 252.9 14.4 247 10.3
2006-03-03 08:29:27 51°11.657 2°46.225 252.6 14.3 249 10.3
2006-03-03 08:29:32 51°11.649 2°46.196 251.3 14.3 246 10.2
2006-03-03 08:29:37 51°11.642 2°46.166 251.1 14.4 248 10.3
2006-03-03 08:29:42 51°11.633 2°46.137 251.2 14.3 246 10.2
2006-03-03 08:29:47 51°11.626 2°46.108 250.8 14.4 247 10.3
2006-03-03 08:29:52 51°11.618 2°46.079 252 14.4 247 10.3
2006-03-03 08:29:57 51°11.611 2°46.049 251.8 14.3 249 10.3
2006-03-03 08:30:02 51°11.604 2°46.02 252.2 14.3 248 10.2
2006-03-03 08:30:07 51°11.597 2°45.99 252.6 14.4 248 10.2
2006-03-03 08:30:12 51°11.59 2°45.96 253.3 14.4 249 10.2
2006-03-03 08:30:17 51°11.583 2°45.93 253.5 14.4 249 10.2
2006-03-03 08:30:22 51°11.576 2°45.901 253.8 14.3 250 10.2
2006-03-03 08:30:27 51°11.568 2°45.871 253.5 14.4 249 10.2
2006-03-03 08:30:32 51°11.562 2°45.841 253.6 14.4 250 10.2
2006-03-03 08:30:37 51°11.554 2°45.812 253.7 14.4 249 10.2
2006-03-03 08:30:42 51°11.547 2°45.782 253.3 14.3 250 10.2
2006-03-03 08:30:47 51°11.54 2°45.752 253.3 14.3 249 10.2
2006-03-03 08:30:52 51°11.533 2°45.723 252.5 14.4 248 10.2
2006-03-03 08:30:57 51°11.525 2°45.693 252.5 14.3 248 10.3
2006-03-03 08:31:02 51°11.517 2°45.664 251.5 14.3 247 10.2
2006-03-03 08:31:07 51°11.51 2°45.635 250.8 14.4 246 10.2
2006-03-03 08:31:12 51°11.501 2°45.606 250.5 14.4 245 10.2
2006-03-03 08:31:17 51°11.493 2°45.577 249.3 14.3 245 10.2
2006-03-03 08:31:22 51°11.484 2°45.548 248.9 14.3 245 10.2
2006-03-03 08:31:27 51°11.476 2°45.52 248.5 14.4 244 10.1
2006-03-03 08:31:32 51°11.467 2°45.491 248.2 14.4 245 10.1
2006-03-03 08:31:37 51°11.459 2°45.462 248.1 14.4 245 10.1
2006-03-03 08:31:42 51°11.45 2°45.434 248.6 14.4 246 10.1
2006-03-03 08:31:47 51°11.442 2°45.405 249.1 14.4 246 10.1
2006-03-03 08:31:52 51°11.435 2°45.376 249.6 14.4 246 10.1
2006-03-03 08:31:57 51°11.427 2°45.346 250.6 14.4 248 10.1
2006-03-03 08:32:02 51°11.419 2°45.317 251 14.4 247 10.1
2006-03-03 08:32:07 51°11.412 2°45.287 251.4 14.4 248 10.1
2006-03-03 08:32:12 51°11.404 2°45.258 252.3 14.4 248 10
2006-03-03 08:32:17 51°11.397 2°45.228 252.5 14.4 248 10
2006-03-03 08:32:22 51°11.389 2°45.199 252.2 14.4 247 10
2006-03-03 08:32:27 51°11.381 2°45.17 251.6 14.4 247 10
2006-03-03 08:32:32 51°11.374 2°45.14 250.6 14.5 247 10
2006-03-03 08:32:37 51°11.365 2°45.111 250.4 14.5 246 10
2006-03-03 08:32:42 51°11.357 2°45.083 249.6 14.4 246 10
2006-03-03 08:32:47 51°11.349 2°45.054 248.9 14.4 244 10
2006-03-03 08:32:52 51°11.34 2°45.025 248.6 14.4 246 10
2006-03-03 08:32:57 51°11.331 2°44.997 248.2 14.4 243 10
2006-03-03 08:33:02 51°11.323 2°44.968 247.7 14.4 245 10
2006-03-03 08:33:07 51°11.315 2°44.939 248.3 14.4 244 10
2006-03-03 08:33:12 51°11.307 2°44.909 248.6 14.4 246 9.9
2006-03-03 08:33:17 51°11.299 2°44.88 249.4 14.3 246 10
2006-03-03 08:33:22 51°11.291 2°44.852 249.6 14.4 247 9.9
2006-03-03 08:33:27 51°11.283 2°44.823 250.4 14.5 247 9.9
2006-03-03 08:33:32 51°11.276 2°44.793 251.1 14.3 248 9.9
2006-03-03 08:33:37 51°11.268 2°44.764 251.7 14.4 247 9.9
2006-03-03 08:33:42 51°11.261 2°44.735 251.7 14.4 249 9.8
2006-03-03 08:33:47 51°11.253 2°44.705 252 14.3 247 9.8
2006-03-03 08:33:52 51°11.246 2°44.676 251.3 14.4 248 9.8
2006-03-03 08:33:57 51°11.238 2°44.647 251.7 14.4 247 9.8
2006-03-03 08:34:02 51°11.231 2°44.618 251.8 14.2 248 9.8
2006-03-03 08:34:07 51°11.223 2°44.589 251.1 14.3 247 9.7
2006-03-03 08:34:12 51°11.215 2°44.559 251.1 14.4 248 9.8
2006-03-03 08:34:17 51°11.208 2°44.53 250.8 14.3 247 9.8
2006-03-03 08:34:22 51°11.199 2°44.501 250.5 14.3 246 9.8
2006-03-03 08:34:27 51°11.192 2°44.472 249.8 14.3 247 9.7
2006-03-03 08:34:32 51°11.183 2°44.444 249.5 14.3 245 9.7
2006-03-03 08:34:37 51°11.175 2°44.415 248.7 14.3 245 9.7
2006-03-03 08:34:42 51°11.167 2°44.387 248.1 14.3 245 9.7
2006-03-03 08:34:47 51°11.158 2°44.358 247.5 14.4 244 9.7
2006-03-03 08:34:52 51°11.15 2°44.33 248.2 14.2 246 9.7
2006-03-03 08:34:57 51°11.141 2°44.301 247.9 14.3 244 9.6
2006-03-03 08:35:02 51°11.134 2°44.272 248.3 14.4 247 9.6
2006-03-03 08:35:07 51°11.126 2°44.243 249.6 14.3 245 9.6
2006-03-03 08:35:12 51°11.118 2°44.214 250.4 14.3 248 9.6
2006-03-03 08:35:17 51°11.111 2°44.184 251.2 14.3 248 9.6
2006-03-03 08:35:22 51°11.104 2°44.155 252.6 14.3 250 9.6
2006-03-03 08:35:27 51°11.097 2°44.125 253.1 14.4 249 9.6
2006-03-03 08:35:32 51°11.091 2°44.095 253.9 14.3 251 9.7
2006-03-03 08:35:37 51°11.084 2°44.066 254.8 14.2 250 9.6
2006-03-03 08:35:42 51°11.078 2°44.035 254.3 14.3 250 9.6
2006-03-03 08:35:47 51°11.071 2°44.005 253.9 14.3 250 9.7
2006-03-03 08:35:52 51°11.064 2°43.976 253.7 14.3 250 9.6
2006-03-03 08:35:57 51°11.057 2°43.946 252.8 14.3 249 9.6
2006-03-03 08:36:02 51°11.05 2°43.917 252.4 14.3 249 9.6
2006-03-03 08:36:07 51°11.042 2°43.888 251.6 14.2 247 9.6
2006-03-03 08:36:12 51°11.034 2°43.859 250.5 14.3 248 9.6
2006-03-03 08:36:17 51°11.027 2°43.83 250.4 14.4 247 9.6
2006-03-03 08:36:22 51°11.019 2°43.801 250.3 14.4 247 9.6
2006-03-03 08:36:27 51°11.012 2°43.771 250.4 14.3 248 9.6
2006-03-03 08:36:32 51°11.004 2°43.742 251.3 14.2 248 9.6
2006-03-03 08:36:37 51°10.997 2°43.713 251.5 14.2 249 9.5
2006-03-03 08:36:42 51°10.99 2°43.683 252.4 14.3 249 9.5
2006-03-03 08:36:47 51°10.984 2°43.653 253.2 14.4 250 9.5
2006-03-03 08:36:52 51°10.977 2°43.623 253.9 14.2 251 9.5
2006-03-03 08:36:57 51°10.971 2°43.594 254.4 14.2 251 9.5
2006-03-03 08:37:02 51°10.964 2°43.564 254.3 14.3 251 9.5
2006-03-03 08:37:08 51°10.956 2°43.528 253.9 14.4 250 9.5
2006-03-03 08:37:12 51°10.95 2°43.505 253.9 14.4 251 9.5
2006-03-03 08:37:17 51°10.943 2°43.475 252.8 14.2 249 9.5
2006-03-03 08:37:22 51°10.936 2°43.446 252.2 14.1 248 9.5
2006-03-03 08:37:27 51°10.928 2°43.417 250.8 14.3 247 9.5
2006-03-03 08:37:32 51°10.921 2°43.387 250.3 14.4 247 9.5
2006-03-03 08:37:37 51°10.913 2°43.358 250.4 14.3 247 9.5
2006-03-03 08:37:42 51°10.906 2°43.329 250 14.2 247 9.5
2006-03-03 08:37:47 51°10.899 2°43.3 250.9 14.2 249 9.5
2006-03-03 08:37:52 51°10.891 2°43.271 250.6 14.3 248 9.5
2006-03-03 08:37:57 51°10.884 2°43.241 251.8 14.4 250 9.5
2006-03-03 08:38:02 51°10.877 2°43.211 253.1 14.4 250 9.5
2006-03-03 08:38:07 51°10.871 2°43.182 254 14.2 252 9.5
2006-03-03 08:38:12 51°10.865 2°43.152 254.2 14.3 251 9.5
2006-03-03 08:38:17 51°10.858 2°43.122 254.7 14.3 253 9.5
2006-03-03 08:38:22 51°10.852 2°43.092 255.2 14.4 251 9.5
2006-03-03 08:38:27 51°10.846 2°43.062 255 14.3 252 9.5
2006-03-03 08:38:32 51°10.84 2°43.032 255.4 14.2 251 9.5
2006-03-03 08:38:37 51°10.833 2°43.003 254.3 14.2 250 9.4
2006-03-03 08:38:42 51°10.826 2°42.973 253.7 14.2 250 9.5
2006-03-03 08:38:47 51°10.819 2°42.944 252.4 14.3 249 9.5
2006-03-03 08:38:52 51°10.811 2°42.915 251.5 14.3 248 9.5
2006-03-03 08:38:57 51°10.803 2°42.886 250.4 14.2 247 9.5
2006-03-03 08:39:02 51°10.796 2°42.857 249.7 14.2 247 9.4
2006-03-03 08:39:07 51°10.788 2°42.828 249.6 14.2 247 9.4
2006-03-03 08:39:12 51°10.781 2°42.798 249.6 14.4 248 9.4
2006-03-03 08:39:17 51°10.773 2°42.769 250.1 14.3 247 9.4
2006-03-03 08:39:22 51°10.766 2°42.74 251 14.2 249 9.4
2006-03-03 08:39:27 51°10.759 2°42.71 251.9 14.2 250 9.4
2006-03-03 08:39:32 51°10.753 2°42.681 252.7 14.3 250 9.5
2006-03-03 08:39:37 51°10.746 2°42.651 254 14.3 252 9.4
2006-03-03 08:39:43 51°10.739 2°42.615 254.8 14.3 252 9.4
2006-03-03 08:39:47 51°10.734 2°42.591 254.7 14.3 251 9.4
2006-03-03 08:39:52 51°10.728 2°42.561 255.1 14.3 252 9.5
2006-03-03 08:39:57 51°10.721 2°42.531 254.5 14.3 251 9.4
2006-03-03 08:40:02 51°10.715 2°42.501 254.1 14.3 252 9.4
2006-03-03 08:40:07 51°10.708 2°42.472 254.4 14.3 250 9.4
2006-03-03 08:40:12 51°10.702 2°42.441 254 14.4 251 9.4
2006-03-03 08:40:17 51°10.695 2°42.412 253.5 14.4 250 9.4
2006-03-03 08:40:22 51°10.688 2°42.383 253.4 14.3 250 9.4
2006-03-03 08:40:27 51°10.681 2°42.353 252.5 14.2 249 9.4
2006-03-03 08:40:33 51°10.673 2°42.318 251.9 14.3 249 9.4
2006-03-03 08:40:37 51°10.667 2°42.294 252.1 14.4 250 9.4
2006-03-03 08:40:42 51°10.66 2°42.264 252.2 14.4 249 9.4
2006-03-03 08:40:47 51°10.653 2°42.234 252.3 14.4 250 9.5
2006-03-03 08:40:52 51°10.646 2°42.205 252.7 14.3 250 9.4
2006-03-03 08:40:57 51°10.64 2°42.176 252.5 14.2 249 9.5
2006-03-03 08:41:02 51°10.633 2°42.146 252.6 14.3 251 9.4
2006-03-03 08:41:07 51°10.626 2°42.116 252.7 14.4 250 9.5
2006-03-03 08:41:12 51°10.619 2°42.086 253 14.3 250 9.5
2006-03-03 08:41:17 51°10.613 2°42.056 253.2 14.4 251 9.5
2006-03-03 08:41:22 51°10.606 2°42.027 253.5 14.3 251 9.5
2006-03-03 08:41:27 51°10.599 2°41.997 253.4 14.2 250 9.4
2006-03-03 08:41:32 51°10.592 2°41.968 252.5 14.3 250 9.4
2006-03-03 08:41:37 51°10.585 2°41.938 251.8 14.3 249 9.5
2006-03-03 08:41:42 51°10.577 2°41.91 250.6 14.2 248 9.5
2006-03-03 08:41:47 51°10.569 2°41.88 249.3 14.4 247 9.4
2006-03-03 08:41:52 51°10.562 2°41.852 248.9 14.3 246 9.5
2006-03-03 08:41:57 51°10.553 2°41.823 248.2 14.2 246 9.5
2006-03-03 08:42:02 51°10.545 2°41.795 247.5 14.2 245 9.5
2006-03-03 08:42:07 51°10.537 2°41.766 247.4 14.2 245 9.5
2006-03-03 08:42:12 51°10.529 2°41.738 247.5 14.2 246 9.4
2006-03-03 08:42:17 51°10.521 2°41.708 247 14.3 246 9.4
2006-03-03 08:42:22 51°10.512 2°41.68 247.5 14.3 245 9.4
2006-03-03 08:42:27 51°10.505 2°41.651 248.3 14.3 246 9.4
2006-03-03 08:42:32 51°10.497 2°41.622 248.9 14.3 246 9.4
2006-03-03 08:42:37 51°10.49 2°41.593 249.6 14.3 249 9.4
2006-03-03 08:42:42 51°10.483 2°41.564 250.7 14.1 248 9.4
2006-03-03 08:42:47 51°10.476 2°41.534 250.4 14.4 248 9.4
2006-03-03 08:42:52 51°10.469 2°41.504 251.8 14.4 250 9.4
2006-03-03 08:42:57 51°10.462 2°41.475 252.5 14.2 249 9.4
2006-03-03 08:43:02 51°10.455 2°41.445 252.3 14.2 250 9.5
2006-03-03 08:43:07 51°10.448 2°41.416 252 14.2 249 9.4
2006-03-03 08:43:12 51°10.441 2°41.387 251.6 14.2 249 9.4
2006-03-03 08:43:17 51°10.434 2°41.357 251 14.3 249 9.4
2006-03-03 08:43:22 51°10.427 2°41.328 250.5 14.4 249 9.4
2006-03-03 08:43:27 51°10.419 2°41.299 250.3 14.2 247 9.4
2006-03-03 08:43:32 51°10.411 2°41.27 249.7 14.2 248 9.4
2006-03-03 08:43:37 51°10.404 2°41.241 248.9 14.2 247 9.4
2006-03-03 08:43:42 51°10.396 2°41.212 248.7 14.2 247 9.4
2006-03-03 08:43:47 51°10.388 2°41.184 247.8 14.2 245 9.4
2006-03-03 08:43:52 51°10.38 2°41.155 247.5 14.2 246 9.3
2006-03-03 08:43:57 51°10.372 2°41.126 247.4 14.3 246 9.3
2006-03-03 08:44:02 51°10.364 2°41.097 247.8 14.3 247 9.3
2006-03-03 08:44:07 51°10.356 2°41.068 248.8 14.1 248 9.3
2006-03-03 08:44:12 51°10.349 2°41.039 249.4 14.1 248 9.3
2006-03-03 08:44:17 51°10.342 2°41.01 250.6 14.2 249 9.3
2006-03-03 08:44:22 51°10.336 2°40.98 251.2 14.2 250 9.4
2006-03-03 08:44:27 51°10.329 2°40.951 252 14.2 250 9.3
2006-03-03 08:44:32 51°10.323 2°40.921 252.4 14.2 250 9.4
2006-03-03 08:44:37 51°10.316 2°40.892 252.5 14.2 249 9.4
2006-03-03 08:44:42 51°10.309 2°40.863 252.2 14.2 251 9.4
2006-03-03 08:44:47 51°10.302 2°40.833 252.4 14.2 249 9.4
2006-03-03 08:44:52 51°10.296 2°40.804 251.8 14.2 251 9.4
2006-03-03 08:44:57 51°10.289 2°40.775 251.9 14.2 249 9.4
2006-03-03 08:45:02 51°10.283 2°40.745 251.8 14.3 250 9.4
2006-03-03 08:45:07 51°10.275 2°40.716 252.3 14.2 249 9.4
2006-03-03 08:45:12 51°10.269 2°40.686 251.8 14.2 251 9.4
2006-03-03 08:45:17 51°10.262 2°40.657 251.9 14.2 250 9.4
2006-03-03 08:45:22 51°10.255 2°40.627 251.2 14.2 250 9.4
2006-03-03 08:45:27 51°10.248 2°40.598 251.1 14.2 249 9.4
2006-03-03 08:45:32 51°10.241 2°40.569 250.8 14.2 250 9.4
2006-03-03 08:45:37 51°10.234 2°40.54 251.1 14.2 249 9.4
2006-03-03 08:45:42 51°10.228 2°40.51 251.1 14.2 250 9.4
2006-03-03 08:45:47 51°10.22 2°40.481 251.1 14.3 249 9.5
2006-03-03 08:45:52 51°10.214 2°40.451 251.3 14.2 251 9.5
2006-03-03 08:45:57 51°10.207 2°40.422 251.5 14.2 249 9.5
2006-03-03 08:46:03 51°10.199 2°40.387 251.4 14.2 250 9.5
2006-03-03 08:46:07 51°10.193 2°40.363 251.7 14.1 249 9.5
2006-03-03 08:46:12 51°10.186 2°40.334 251.1 14.1 250 9.4
2006-03-03 08:46:17 51°10.179 2°40.305 250.7 14.3 249 9.4
2006-03-03 08:46:22 51°10.173 2°40.275 251.2 14.2 250 9.5
2006-03-03 08:46:27 51°10.165 2°40.246 250.8 14.2 248 9.5
2006-03-03 08:46:32 51°10.158 2°40.217 249.9 14.2 249 9.5
2006-03-03 08:46:37 51°10.151 2°40.188 249.5 14.1 248 9.5
2006-03-03 08:46:42 51°10.143 2°40.159 248.7 14.2 248 9.5
2006-03-03 08:46:47 51°10.136 2°40.13 248.3 14.2 247 9.4
2006-03-03 08:46:52 51°10.128 2°40.101 247.7 14.2 247 9.4
2006-03-03 08:46:57 51°10.12 2°40.073 247.7 14.2 247 9.4
2006-03-03 08:47:02 51°10.112 2°40.044 247.5 14.2 247 9.4
2006-03-03 08:47:07 51°10.105 2°40.014 247.6 14.2 247 9.4
2006-03-03 08:47:12 51°10.097 2°39.986 248.3 14.2 247 9.4
2006-03-03 08:47:17 51°10.09 2°39.956 248.6 14.3 249 9.4
2006-03-03 08:47:22 51°10.083 2°39.927 249.6 14.3 249 9.4
2006-03-03 08:47:27 51°10.076 2°39.898 250.3 14.3 249 9.4
2006-03-03 08:47:32 51°10.069 2°39.868 251.1 14.3 251 9.4
2006-03-03 08:47:37 51°10.063 2°39.838 251.5 14.2 250 9.4
2006-03-03 08:47:42 51°10.056 2°39.809 251.9 14.3 252 9.4
2006-03-03 08:47:47 51°10.05 2°39.779 252.4 14.3 251 9.5
2006-03-03 08:47:52 51°10.043 2°39.749 252.5 14.3 251 9.4
2006-03-03 08:47:57 51°10.037 2°39.72 252.1 14.3 251 9.4
2006-03-03 08:48:02 51°10.029 2°39.69 251.1 14.2 249 9.4
2006-03-03 08:48:07 51°10.022 2°39.661 250.1 14.2 249 9.4
2006-03-03 08:48:12 51°10.014 2°39.633 248.5 14.2 246 9.4
2006-03-03 08:48:17 51°10.006 2°39.604 247.5 14.2 246 9.4
2006-03-03 08:48:23 51°9.996 2°39.57 245.6 14.2 244 9.4
2006-03-03 08:48:27 51°9.989 2°39.548 245 14.2 245 9.4
2006-03-03 08:48:32 51°9.981 2°39.52 245 14.1 244 9.4
2006-03-03 08:48:37 51°9.972 2°39.492 244.7 14.1 244 9.5
2006-03-03 08:48:42 51°9.963 2°39.463 244.5 14.2 244 9.5
2006-03-03 08:48:47 51°9.955 2°39.435 244.8 14.1 245 9.5
2006-03-03 08:48:53 51°9.946 2°39.401 245.4 14.3 246 9.4
2006-03-03 08:48:57 51°9.94 2°39.377 247 14.3 247 9.4
2006-03-03 08:49:02 51°9.932 2°39.348 248.3 14.2 247 9.5
2006-03-03 08:49:07 51°9.925 2°39.319 249.1 14.2 250 9.5
2006-03-03 08:49:12 51°9.918 2°39.29 250 14.1 248 9.5
2006-03-03 08:49:17 51°9.911 2°39.261 249.8 14.2 250 9.6
2006-03-03 08:49:22 51°9.904 2°39.232 250.3 14.2 249 9.6
2006-03-03 08:49:27 51°9.897 2°39.202 249.9 14.3 249 9.6
2006-03-03 08:49:32 51°9.89 2°39.173 250 14.2 249 9.6
2006-03-03 08:49:37 51°9.882 2°39.144 250 14.2 249 9.7
2006-03-03 08:49:43 51°9.874 2°39.108 249.6 14.2 249 9.7
2006-03-03 08:49:47 51°9.868 2°39.085 249.4 14.2 248 9.7
2006-03-03 08:49:52 51°9.861 2°39.056 249.6 14.2 250 9.7
2006-03-03 08:49:57 51°9.854 2°39.026 249.5 14.3 248 9.7
2006-03-03 08:50:02 51°9.846 2°38.997 249.6 14.2 249 9.8
2006-03-03 08:50:07 51°9.839 2°38.969 249.5 14.2 248 9.7
2006-03-03 08:50:12 51°9.831 2°38.939 248.9 14.2 249 9.8
2006-03-03 08:50:17 51°9.823 2°38.91 248.2 14.2 246 9.8
2006-03-03 08:50:22 51°9.815 2°38.882 247.2 14.3 247 9.8
2006-03-03 08:50:27 51°9.807 2°38.853 246 14.3 246 9.7
2006-03-03 08:50:32 51°9.799 2°38.825 245.7 14.1 245 9.7
2006-03-03 08:50:37 51°9.79 2°38.797 244.5 14.2 243 9.7
2006-03-03 08:50:42 51°9.781 2°38.769 244 14.2 244 9.7
2006-03-03 08:50:47 51°9.772 2°38.741 243.7 14.1 243 9.7
2006-03-03 08:50:52 51°9.763 2°38.712 242.8 14.3 243 9.7
2006-03-03 08:50:57 51°9.754 2°38.684 243.3 14.3 244 9.7
2006-03-03 08:51:03 51°9.744 2°38.651 244.2 14.2 244 9.8
2006-03-03 08:51:07 51°9.738 2°38.628 244.6 14.2 245 9.7
2006-03-03 08:51:12 51°9.729 2°38.599 245.9 14.2 246 9.7
2006-03-03 08:51:17 51°9.722 2°38.57 246.5 14.3 246 9.8
2006-03-03 08:51:22 51°9.714 2°38.541 246.9 14.2 247 9.8
2006-03-03 08:51:27 51°9.706 2°38.513 247.6 14.2 246 9.8
2006-03-03 08:51:32 51°9.699 2°38.484 247.4 14.2 247 9.8
2006-03-03 08:51:37 51°9.691 2°38.456 247.5 13.9 246 9.7
2006-03-03 08:51:42 51°9.684 2°38.43 247.3 13.2 248 9.7
2006-03-03 08:51:47 51°9.677 2°38.405 247.5 12.5 246 9.8
2006-03-03 08:51:52 51°9.671 2°38.381 247.2 11.8 247 9.9
2006-03-03 08:51:57 51°9.664 2°38.36 246 11.1 244 10
2006-03-03 08:52:02 51°9.659 2°38.339 245.7 10.8 246 10
2006-03-03 08:52:07 51°9.652 2°38.319 243.7 10.1 241 10
2006-03-03 08:52:12 51°9.646 2°38.301 243 9.6 245 10.1
2006-03-03 08:52:17 51°9.64 2°38.283 240.9 9.2 239 10.1
2006-03-03 08:52:22 51°9.634 2°38.266 239.9 8.9 242 10.1
2006-03-03 08:52:27 51°9.628 2°38.25 238.2 8.6 237 10.1
2006-03-03 08:52:32 51°9.622 2°38.235 237.3 8.3 241 10.1
2006-03-03 08:52:37 51°9.616 2°38.22 236.6 8.1 236 10.1
2006-03-03 08:52:43 51°9.609 2°38.202 236.5 8 241 10
2006-03-03 08:52:47 51°9.605 2°38.19 236.2 7.8 236 10
2006-03-03 08:52:52 51°9.599 2°38.175 236.6 8 239 10
2006-03-03 08:52:57 51°9.594 2°38.16 237.2 7.8 239 10
2006-03-03 08:53:02 51°9.588 2°38.146 238.2 7.5 240 10
2006-03-03 08:53:07 51°9.584 2°38.132 239 7.4 240 10
2006-03-03 08:53:12 51°9.579 2°38.118 240.1 7.1 243 10
2006-03-03 08:53:17 51°9.575 2°38.105 241.2 7 242 10
2006-03-03 08:53:22 51°9.571 2°38.091 242.8 6.8 245 10
2006-03-03 08:53:27 51°9.567 2°38.078 244 6.6 245 10
2006-03-03 08:53:32 51°9.563 2°38.065 245.6 6.4 247 10
2006-03-03 08:53:37 51°9.56 2°38.052 246.6 6.3 247 10
2006-03-03 08:53:42 51°9.557 2°38.04 247.1 6.1 246 10
2006-03-03 08:53:47 51°9.554 2°38.028 246.3 5.8 247 10
2006-03-03 08:53:52 51°9.55 2°38.017 245.3 5.6 245 10
2006-03-03 08:53:57 51°9.547 2°38.006 243.9 5.5 246 10
2006-03-03 08:54:02 51°9.544 2°37.996 243.4 5.3 246 10
2006-03-03 08:54:07 51°9.541 2°37.985 242.7 5.1 245 10
2006-03-03 08:54:12 51°9.538 2°37.976 242.1 4.9 242 10
2006-03-03 08:54:17 51°9.535 2°37.966 241.4 4.9 244 10
2006-03-03 08:54:22 51°9.532 2°37.957 240.5 4.6 242 10
2006-03-03 08:54:27 51°9.53 2°37.948 239.8 4.5 243 10
2006-03-03 08:54:33 51°9.526 2°37.939 238.5 4.1 241 10
2006-03-03 08:54:37 51°9.524 2°37.933 235.8 3.9 239 10
2006-03-03 08:54:42 51°9.521 2°37.926 232.9 3.6 240 10
2006-03-03 08:54:47 51°9.519 2°37.92 229.4 3.2 238 10
2006-03-03 08:54:52 51°9.517 2°37.916 225.7 2.6 237 10
2006-03-03 08:54:57 51°9.516 2°37.911 222 2.4 240 10
2006-03-03 08:55:02 51°9.515 2°37.908 219.4 2.1 244 10
2006-03-03 08:55:07 51°9.514 2°37.904 217.7 1.7 248 10
2006-03-03 08:55:12 51°9.514 2°37.901 216.5 1.3 256 10
2006-03-03 08:55:17 51°9.514 2°37.899 215.6 1.2 268 10
2006-03-03 08:55:22 51°9.514 2°37.896 214.8 0.9 279 10
2006-03-03 08:55:27 51°9.515 2°37.895 214.5 0.9 293 10
2006-03-03 08:55:32 51°9.515 2°37.893 214.4 1 299 10
2006-03-03 08:55:37 51°9.516 2°37.891 214.4 0.9 294 10
2006-03-03 08:55:43 51°9.516 2°37.889 215 0.8 292 -999
2006-03-03 08:55:48 51°9.517 2°37.887 215.7 1 290 -999
2006-03-03 08:55:53 51°9.517 2°37.885 216.2 0.8 287 -999
2006-03-03 08:55:58 51°9.517 2°37.883 216.9 0.9 285 4.9
2006-03-03 08:56:03 51°9.518 2°37.881 217.3 0.8 283 -999
2006-03-03 08:56:08 51°9.518 2°37.879 217.4 0.9 282 4.8
2006-03-03 08:56:12 51°9.518 2°37.878 217.7 0.8 278 10.1
2006-03-03 08:56:17 51°9.518 2°37.876 217.6 0.9 281 10.1
2006-03-03 08:56:22 51°9.518 2°37.874 217.6 0.8 275 9.2
2006-03-03 08:56:27 51°9.518 2°37.872 217.7 0.9 278 10.1
2006-03-03 08:56:33 51°9.519 2°37.87 217.4 0.9 275 10.1
2006-03-03 08:56:37 51°9.519 2°37.868 217.4 0.9 277 10.2
2006-03-03 08:56:42 51°9.519 2°37.866 217.3 0.8 273 10.2
2006-03-03 08:56:47 51°9.519 2°37.864 217.1 1 279 10.2
2006-03-03 08:56:52 51°9.519 2°37.862 217 0.9 273 10.2
2006-03-03 08:56:57 51°9.519 2°37.86 217.1 1.1 279 10.2
2006-03-03 08:57:02 51°9.519 2°37.858 217 0.9 271 10.2
2006-03-03 08:57:07 51°9.519 2°37.856 217.1 1.1 279 10.2
2006-03-03 08:57:12 51°9.52 2°37.854 217.2 0.8 270 10.2
2006-03-03 08:57:17 51°9.52 2°37.852 217.2 1.1 276 10.2
2006-03-03 08:57:23 51°9.52 2°37.849 217.4 0.8 268 10.3
2006-03-03 08:57:27 51°9.52 2°37.848 217.4 1 276 10.2
2006-03-03 08:57:32 51°9.52 2°37.845 217.6 0.9 271 10.3
2006-03-03 08:57:37 51°9.52 2°37.843 217.9 1 276 10.2
2006-03-03 08:57:42 51°9.52 2°37.841 218 0.9 270 10.3
2006-03-03 08:57:47 51°9.52 2°37.839 218.3 1 275 10.3
2006-03-03 08:57:52 51°9.52 2°37.836 218.5 1 271 10.3
2006-03-03 08:57:57 51°9.52 2°37.834 218.8 1.1 275 10.3
2006-03-03 08:58:02 51°9.52 2°37.832 218.8 1 269 10.3
2006-03-03 08:58:07 51°9.52 2°37.83 219.1 1 271 10.3
2006-03-03 08:58:12 51°9.52 2°37.827 219.4 1.1 272 10.3
2006-03-03 08:58:17 51°9.52 2°37.825 219.8 1 272 10.3
2006-03-03 08:58:22 51°9.521 2°37.823 219.8 1.1 273 10.4
2006-03-03 08:58:27 51°9.52 2°37.82 220.2 1.1 264 10.4
2006-03-03 08:58:32 51°9.52 2°37.817 220.4 1.3 261 10.3
2006-03-03 08:58:37 51°9.519 2°37.814 219.3 1.3 256 10.3
2006-03-03 08:58:42 51°9.519 2°37.811 217.9 1.4 259 10.3
2006-03-03 08:58:47 51°9.519 2°37.808 216.9 1.3 256 10.4
2006-03-03 08:58:52 51°9.518 2°37.806 216.2 1.2 257 10.4
2006-03-03 08:58:57 51°9.518 2°37.803 215.5 1.3 258 10.3
2006-03-03 08:59:02 51°9.517 2°37.8 214.9 1.3 258 10.3
2006-03-03 08:59:07 51°9.517 2°37.797 214.4 1.3 258 10.3
2006-03-03 08:59:12 51°9.516 2°37.794 214.1 1.3 257 10.4
2006-03-03 08:59:17 51°9.516 2°37.791 213.6 1.4 258 10.4
2006-03-03 08:59:23 51°9.516 2°37.788 213.4 1.3 256 10.4
2006-03-03 08:59:27 51°9.515 2°37.785 213.3 1.4 258 10.4
2006-03-03 08:59:32 51°9.515 2°37.782 213 1.3 256 10.4
2006-03-03 08:59:37 51°9.515 2°37.779 212.9 1.4 259 10.4
2006-03-03 08:59:42 51°9.514 2°37.777 212.7 1.3 256 10.4
2006-03-03 08:59:47 51°9.514 2°37.774 212.6 1.3 257 10.4
2006-03-03 08:59:52 51°9.513 2°37.771 212.6 1.3 256 10.4
2006-03-03 08:59:57 51°9.513 2°37.768 212.5 1.4 258 10.4
2006-03-03 09:00:02 51°9.512 2°37.765 212.5 1.3 256 10.4
2006-03-03 09:00:07 51°9.512 2°37.762 212.4 1.3 257 10.4
2006-03-03 09:00:12 51°9.512 2°37.759 212.4 1.3 256 10.4
2006-03-03 09:00:17 51°9.511 2°37.756 212.3 1.5 259 10.4
2006-03-03 09:00:22 51°9.511 2°37.753 212.5 1.3 256 10.4
2006-03-03 09:00:27 51°9.51 2°37.75 212.6 1.4 259 10.4
2006-03-03 09:00:32 51°9.51 2°37.748 212.6 1.3 255 10.5
2006-03-03 09:00:37 51°9.509 2°37.745 212.6 1.4 258 10.5
2006-03-03 09:00:42 51°9.509 2°37.742 212.8 1.3 254 10.5
2006-03-03 09:00:47 51°9.509 2°37.739 212.9 1.4 257 10.5
2006-03-03 09:00:52 51°9.508 2°37.736 213 1.4 256 10.5
2006-03-03 09:00:57 51°9.508 2°37.733 213.2 1.4 256 10.5
2006-03-03 09:01:02 51°9.507 2°37.73 213.2 1.4 253 10.5
2006-03-03 09:01:07 51°9.506 2°37.727 212.8 1.5 254 10.5
2006-03-03 09:01:12 51°9.506 2°37.724 212.2 1.4 250 10.5
2006-03-03 09:01:17 51°9.505 2°37.72 211.5 1.4 249 10.5
2006-03-03 09:01:22 51°9.504 2°37.717 210.6 1.5 248 10.5
2006-03-03 09:01:27 51°9.503 2°37.714 209.5 1.6 247 10.5
2006-03-03 09:01:32 51°9.502 2°37.711 208.4 1.6 246 10.6
2006-03-03 09:01:37 51°9.502 2°37.708 206.8 1.6 245 10.5
2006-03-03 09:01:42 51°9.501 2°37.705 205.4 1.6 242 10.6
2006-03-03 09:01:47 51°9.499 2°37.702 203.9 1.7 244 10.6
2006-03-03 09:01:52 51°9.498 2°37.698 202.3 1.6 239 10.6
2006-03-03 09:01:57 51°9.497 2°37.695 200.5 1.6 239 10.6
2006-03-03 09:02:02 51°9.496 2°37.692 198.9 1.6 236 10.6
2006-03-03 09:02:07 51°9.495 2°37.689 197 1.6 237 10.5
2006-03-03 09:02:12 51°9.493 2°37.686 195.1 1.7 233 10.5
2006-03-03 09:02:17 51°9.492 2°37.683 193.4 1.8 237 10.5
2006-03-03 09:02:22 51°9.49 2°37.68 191.5 1.6 231 10.5
2006-03-03 09:02:27 51°9.489 2°37.677 189.7 1.7 234 10.5
2006-03-03 09:02:32 51°9.487 2°37.674 188 1.7 232 10.5
2006-03-03 09:02:37 51°9.486 2°37.672 186.4 1.7 230 10.5
2006-03-03 09:02:42 51°9.485 2°37.669 185 1.6 231 10.5
2006-03-03 09:02:47 51°9.483 2°37.666 183.6 1.7 233 10.5
2006-03-03 09:02:52 51°9.482 2°37.663 182.6 1.7 235 10.5
2006-03-03 09:02:57 51°9.48 2°37.66 182 1.6 232 10.4
2006-03-03 09:03:02 51°9.479 2°37.657 181.5 1.6 233 10.4
2006-03-03 09:03:07 51°9.478 2°37.655 181.1 1.6 234 10.4
2006-03-03 09:03:12 51°9.476 2°37.652 180.7 1.6 233 10.5
2006-03-03 09:03:17 51°9.475 2°37.649 180.7 1.6 234 10.4
2006-03-03 09:03:22 51°9.474 2°37.646 180.5 1.6 233 10.5
2006-03-03 09:03:27 51°9.472 2°37.643 180.5 1.6 235 10.4
2006-03-03 09:03:32 51°9.471 2°37.64 180.6 1.6 233 10.4
2006-03-03 09:03:37 51°9.47 2°37.637 180.7 1.6 236 10.4
2006-03-03 09:03:42 51°9.469 2°37.634 180.9 1.6 235 10.4
2006-03-03 09:03:47 51°9.467 2°37.632 181.2 1.6 237 10.4
2006-03-03 09:03:52 51°9.466 2°37.629 181.3 1.6 237 10.4
2006-03-03 09:03:57 51°9.465 2°37.626 181.6 1.6 237 10.4
2006-03-03 09:04:02 51°9.464 2°37.623 182.1 1.6 237 10.4
2006-03-03 09:04:07 51°9.463 2°37.62 182.3 1.6 238 10.4
2006-03-03 09:04:12 51°9.462 2°37.617 182.8 1.5 237 10.4
2006-03-03 09:04:17 51°9.46 2°37.614 183.2 1.6 238 10.4
2006-03-03 09:04:22 51°9.459 2°37.611 183.6 1.5 237 10.4
2006-03-03 09:04:27 51°9.458 2°37.608 184.1 1.6 239 10.4
2006-03-03 09:04:32 51°9.457 2°37.605 184.3 1.5 238 10.4
2006-03-03 09:04:37 51°9.456 2°37.602 184.9 1.6 239 10.4
2006-03-03 09:04:42 51°9.454 2°37.599 185.2 1.6 238 10.4
2006-03-03 09:04:47 51°9.453 2°37.597 185.7 1.5 238 10.4
2006-03-03 09:04:52 51°9.452 2°37.593 186 1.6 240 10.4
2006-03-03 09:04:57 51°9.451 2°37.591 186.5 1.5 239 10.4
2006-03-03 09:05:02 51°9.45 2°37.587 186.5 1.6 241 10.4
2006-03-03 09:05:07 51°9.449 2°37.585 187 1.6 240 10.4
2006-03-03 09:05:12 51°9.447 2°37.581 187.3 1.6 240 10.4
2006-03-03 09:05:17 51°9.446 2°37.578 187.6 1.5 240 10.4
2006-03-03 09:05:22 51°9.445 2°37.575 187.9 1.6 240 10.4
2006-03-03 09:05:27 51°9.444 2°37.572 188.3 1.5 239 10.4
2006-03-03 09:05:32 51°9.443 2°37.569 188.7 1.6 240 10.4
2006-03-03 09:05:37 51°9.442 2°37.566 189 1.6 240 10.3
2006-03-03 09:05:42 51°9.441 2°37.563 189.4 1.6 240 10.4
2006-03-03 09:05:47 51°9.44 2°37.56 189.8 1.5 241 10.4
2006-03-03 09:05:52 51°9.438 2°37.557 190.2 1.6 240 10.4
2006-03-03 09:05:57 51°9.437 2°37.555 190.7 1.5 240 10.4
2006-03-03 09:06:02 51°9.436 2°37.552 191 1.6 240 10.3
2006-03-03 09:06:07 51°9.435 2°37.549 191.4 1.5 241 10.4
2006-03-03 09:06:12 51°9.434 2°37.545 191.7 1.6 241 10.3
2006-03-03 09:06:17 51°9.433 2°37.543 192.2 1.5 240 10.3
2006-03-03 09:06:22 51°9.432 2°37.539 192.6 1.6 242 10.3
2006-03-03 09:06:27 51°9.431 2°37.536 193 1.5 239 10.4
2006-03-03 09:06:32 51°9.43 2°37.533 193.3 1.6 243 10.4
2006-03-03 09:06:37 51°9.429 2°37.53 193.9 1.5 240 10.3
2006-03-03 09:06:42 51°9.428 2°37.527 194.3 1.6 241 10.4
2006-03-03 09:06:47 51°9.427 2°37.525 194.8 1.5 239 10.4
2006-03-03 09:06:52 51°9.426 2°37.521 195.2 1.6 244 10.4
2006-03-03 09:06:57 51°9.425 2°37.519 195.5 1.5 240 10.4
2006-03-03 09:07:02 51°9.424 2°37.515 195.9 1.6 243 10.4
2006-03-03 09:07:07 51°9.423 2°37.513 196.4 1.5 240 10.4
2006-03-03 09:07:12 51°9.422 2°37.509 196.7 1.6 244 10.4
2006-03-03 09:07:17 51°9.421 2°37.506 197.1 1.5 242 10.4
2006-03-03 09:07:22 51°9.42 2°37.503 197.4 1.6 243 10.4
2006-03-03 09:07:27 51°9.419 2°37.5 197.8 1.5 240 10.4
2006-03-03 09:07:32 51°9.418 2°37.497 198.1 1.7 243 10.4
2006-03-03 09:07:37 51°9.417 2°37.494 198.5 1.6 242 10.4
2006-03-03 09:07:42 51°9.417 2°37.491 199 1.6 243 10.4
2006-03-03 09:07:47 51°9.415 2°37.488 199.3 1.5 241 10.4
2006-03-03 09:07:52 51°9.414 2°37.485 199.6 1.6 244 10.4
2006-03-03 09:07:57 51°9.414 2°37.482 200 1.5 242 10.4
2006-03-03 09:08:02 51°9.413 2°37.479 200.3 1.6 244 10.4
2006-03-03 09:08:07 51°9.412 2°37.476 200.6 1.6 244 10.4
2006-03-03 09:08:12 51°9.411 2°37.472 201 1.6 243 10.4
2006-03-03 09:08:17 51°9.41 2°37.469 201.2 1.6 245 10.4
2006-03-03 09:08:22 51°9.409 2°37.466 201.7 1.6 245 10.4
2006-03-03 09:08:27 51°9.408 2°37.463 202 1.6 246 10.4
2006-03-03 09:08:32 51°9.407 2°37.46 202.3 1.5 240 10.4
2006-03-03 09:08:37 51°9.406 2°37.457 202.7 1.6 247 10.5
2006-03-03 09:08:42 51°9.405 2°37.454 202.9 1.4 240 10.5
2006-03-03 09:08:47 51°9.404 2°37.451 203.2 1.6 247 10.4
2006-03-03 09:08:52 51°9.403 2°37.447 203.4 1.5 243 10.4
2006-03-03 09:08:57 51°9.402 2°37.445 203.7 1.6 244 10.4
2006-03-03 09:09:02 51°9.401 2°37.441 204.1 1.5 243 10.4
2006-03-03 09:09:07 51°9.4 2°37.438 204.3 1.6 245 10.4
2006-03-03 09:09:12 51°9.399 2°37.435 204.7 1.5 242 10.4
2006-03-03 09:09:17 51°9.398 2°37.432 205.2 1.6 245 10.4
2006-03-03 09:09:22 51°9.397 2°37.429 205.3 1.6 244 10.4
2006-03-03 09:09:27 51°9.396 2°37.426 205.5 1.6 246 10.4
2006-03-03 09:09:32 51°9.395 2°37.423 205.8 1.6 245 10.4
2006-03-03 09:09:37 51°9.394 2°37.42 206.1 1.6 243 10.4
2006-03-03 09:09:42 51°9.393 2°37.417 206.4 1.6 245 10.4
2006-03-03 09:09:47 51°9.393 2°37.413 206.5 1.6 243 10.4
2006-03-03 09:09:52 51°9.392 2°37.41 206.8 1.5 243 10.4
2006-03-03 09:09:57 51°9.391 2°37.407 206.9 1.6 245 10.5
2006-03-03 09:10:02 51°9.39 2°37.404 207.3 1.6 246 10.5
2006-03-03 09:10:07 51°9.389 2°37.401 207.5 1.6 246 10.4
2006-03-03 09:10:12 51°9.388 2°37.398 207.6 1.6 244 10.5
2006-03-03 09:10:17 51°9.387 2°37.395 208 1.6 243 10.4
2006-03-03 09:10:22 51°9.386 2°37.391 208.2 1.6 246 10.5
2006-03-03 09:10:27 51°9.385 2°37.388 208.4 1.6 246 10.5
2006-03-03 09:10:33 51°9.384 2°37.384 208.7 1.6 246 10.5
2006-03-03 09:10:37 51°9.383 2°37.382 209 1.5 244 10.5
2006-03-03 09:10:42 51°9.382 2°37.379 209.2 1.7 248 10.5
2006-03-03 09:10:47 51°9.381 2°37.375 209.3 1.5 242 10.5
2006-03-03 09:10:52 51°9.381 2°37.372 209.6 1.6 248 10.5
2006-03-03 09:10:57 51°9.38 2°37.369 209.8 1.5 245 10.5
2006-03-03 09:11:02 51°9.379 2°37.366 210 1.6 246 10.5
2006-03-03 09:11:07 51°9.378 2°37.363 210.3 1.6 245 10.5
2006-03-03 09:11:12 51°9.377 2°37.36 210.3 1.6 247 10.5
2006-03-03 09:11:17 51°9.376 2°37.356 210.7 1.6 244 10.6
2006-03-03 09:11:22 51°9.375 2°37.353 211 1.6 247 10.5
2006-03-03 09:11:27 51°9.375 2°37.35 211.2 1.6 245 10.5
2006-03-03 09:11:32 51°9.374 2°37.346 211.3 1.7 246 10.5
2006-03-03 09:11:37 51°9.373 2°37.343 211.6 1.6 245 10.5
2006-03-03 09:11:42 51°9.372 2°37.34 211.9 1.6 248 10.5
2006-03-03 09:11:47 51°9.371 2°37.337 212 1.5 242 10.5
2006-03-03 09:11:52 51°9.37 2°37.334 212.4 1.6 245 10.5
2006-03-03 09:11:57 51°9.369 2°37.33 212.6 1.6 247 10.5
2006-03-03 09:12:02 51°9.368 2°37.327 212.7 1.6 246 10.6
2006-03-03 09:12:07 51°9.367 2°37.324 213.3 1.6 245 10.5
2006-03-03 09:12:12 51°9.366 2°37.321 213.3 1.7 247 10.5
2006-03-03 09:12:17 51°9.366 2°37.317 213.5 1.6 246 10.5
2006-03-03 09:12:22 51°9.365 2°37.314 213.8 1.6 248 10.5
2006-03-03 09:12:27 51°9.364 2°37.311 214.1 1.6 243 10.5
2006-03-03 09:12:32 51°9.363 2°37.308 214.4 1.7 249 10.6
2006-03-03 09:12:37 51°9.362 2°37.305 214.7 1.6 243 10.6
2006-03-03 09:12:43 51°9.361 2°37.3 214.8 1.7 251 10.6
2006-03-03 09:12:47 51°9.36 2°37.298 215.2 1.5 241 10.6
2006-03-03 09:12:52 51°9.359 2°37.295 215.5 1.7 247 10.6
2006-03-03 09:12:57 51°9.358 2°37.291 215.7 1.6 245 10.6
2006-03-03 09:13:02 51°9.357 2°37.288 215.8 1.7 249 10.6
2006-03-03 09:13:07 51°9.357 2°37.285 216.1 1.6 244 10.6
2006-03-03 09:13:12 51°9.356 2°37.281 216.3 1.6 248 10.6
2006-03-03 09:13:17 51°9.355 2°37.278 216.6 1.6 246 10.6
2006-03-03 09:13:22 51°9.354 2°37.275 216.8 1.7 250 10.5
2006-03-03 09:13:27 51°9.353 2°37.272 217 1.6 243 10.6
2006-03-03 09:13:32 51°9.352 2°37.268 217.2 1.6 248 10.6
2006-03-03 09:13:37 51°9.351 2°37.265 217.5 1.6 247 10.6
2006-03-03 09:13:42 51°9.35 2°37.262 217.8 1.6 247 10.6
2006-03-03 09:13:47 51°9.349 2°37.259 218.2 1.6 244 10.6
2006-03-03 09:13:52 51°9.349 2°37.255 218.2 1.6 248 10.6
2006-03-03 09:13:57 51°9.348 2°37.252 218.5 1.5 245 10.6
2006-03-03 09:14:02 51°9.347 2°37.248 219.1 1.6 250 10.6